sensor_id;sensor_type;location;lat;lon;timestamp;P1;durP1;ratioP1;P2;durP2;ratioP2
23802;SDS011;12082;51.786;6.018;2022-09-09T00:01:36;3.17;;;2.47;;
23802;SDS011;12082;51.786;6.018;2022-09-09T00:04:35;5.27;;;2.50;;
23802;SDS011;12082;51.786;6.018;2022-09-09T00:13:01;4.90;;;2.20;;
23802;SDS011;12082;51.786;6.018;2022-09-09T00:15:30;5.40;;;2.87;;
23802;SDS011;12082;51.786;6.018;2022-09-09T00:18:07;6.43;;;2.33;;
23802;SDS011;12082;51.786;6.018;2022-09-09T00:20:42;2.43;;;2.07;;
23802;SDS011;12082;51.786;6.018;2022-09-09T00:23:13;4.03;;;2.30;;
23802;SDS011;12082;51.786;6.018;2022-09-09T00:26:07;2.53;;;2.30;;
23802;SDS011;12082;51.786;6.018;2022-09-09T00:31:33;2.83;;;2.43;;
23802;SDS011;12082;51.786;6.018;2022-09-09T00:36:43;3.80;;;2.43;;
23802;SDS011;12082;51.786;6.018;2022-09-09T00:39:17;7.47;;;3.40;;
23802;SDS011;12082;51.786;6.018;2022-09-09T00:44:31;6.93;;;3.37;;
23802;SDS011;12082;51.786;6.018;2022-09-09T00:52:39;6.77;;;3.73;;
23802;SDS011;12082;51.786;6.018;2022-09-09T00:58:10;4.43;;;3.10;;
23802;SDS011;12082;51.786;6.018;2022-09-09T01:00:40;6.37;;;3.60;;
23802;SDS011;12082;51.786;6.018;2022-09-09T01:11:17;6.00;;;3.90;;
23802;SDS011;12082;51.786;6.018;2022-09-09T01:14:10;7.00;;;3.67;;
23802;SDS011;12082;51.786;6.018;2022-09-09T01:16:56;7.33;;;4.57;;
23802;SDS011;12082;51.786;6.018;2022-09-09T01:25:56;7.37;;;4.10;;
23802;SDS011;12082;51.786;6.018;2022-09-09T01:28:29;7.57;;;4.60;;
23802;SDS011;12082;51.786;6.018;2022-09-09T01:31:00;8.10;;;4.70;;
23802;SDS011;12082;51.786;6.018;2022-09-09T01:33:27;7.80;;;4.63;;
23802;SDS011;12082;51.786;6.018;2022-09-09T01:38:31;6.77;;;5.13;;
23802;SDS011;12082;51.786;6.018;2022-09-09T01:40:58;8.70;;;4.93;;
23802;SDS011;12082;51.786;6.018;2022-09-09T01:43:24;10.23;;;4.20;;
23802;SDS011;12082;51.786;6.018;2022-09-09T01:45:52;5.70;;;4.47;;
23802;SDS011;12082;51.786;6.018;2022-09-09T01:48:20;8.73;;;4.20;;
23802;SDS011;12082;51.786;6.018;2022-09-09T01:50:47;6.30;;;5.13;;
23802;SDS011;12082;51.786;6.018;2022-09-09T01:53:13;6.93;;;4.40;;
23802;SDS011;12082;51.786;6.018;2022-09-09T01:55:42;7.07;;;4.30;;
23802;SDS011;12082;51.786;6.018;2022-09-09T02:03:40;6.43;;;4.77;;
23802;SDS011;12082;51.786;6.018;2022-09-09T02:08:52;8.43;;;5.10;;
23802;SDS011;12082;51.786;6.018;2022-09-09T02:11:24;7.33;;;5.20;;
23802;SDS011;12082;51.786;6.018;2022-09-09T02:13:53;9.60;;;5.63;;
23802;SDS011;12082;51.786;6.018;2022-09-09T02:16:24;9.17;;;4.90;;
23802;SDS011;12082;51.786;6.018;2022-09-09T02:19:13;6.90;;;4.73;;
23802;SDS011;12082;51.786;6.018;2022-09-09T02:21:52;8.87;;;4.93;;
23802;SDS011;12082;51.786;6.018;2022-09-09T02:24:20;8.73;;;5.50;;
23802;SDS011;12082;51.786;6.018;2022-09-09T02:26:47;8.37;;;5.50;;
23802;SDS011;12082;51.786;6.018;2022-09-09T02:29:25;8.47;;;6.30;;
23802;SDS011;12082;51.786;6.018;2022-09-09T02:31:55;11.00;;;5.57;;
23802;SDS011;12082;51.786;6.018;2022-09-09T02:34:28;14.60;;;5.97;;
23802;SDS011;12082;51.786;6.018;2022-09-09T02:36:56;13.57;;;5.70;;
23802;SDS011;12082;51.786;6.018;2022-09-09T02:39:24;8.37;;;5.30;;
23802;SDS011;12082;51.786;6.018;2022-09-09T02:41:50;12.97;;;5.87;;
23802;SDS011;12082;51.786;6.018;2022-09-09T02:44:16;10.27;;;5.67;;
23802;SDS011;12082;51.786;6.018;2022-09-09T02:52:30;19.93;;;6.70;;
23802;SDS011;12082;51.786;6.018;2022-09-09T02:57:51;10.37;;;6.50;;
23802;SDS011;12082;51.786;6.018;2022-09-09T03:00:25;12.07;;;5.60;;
23802;SDS011;12082;51.786;6.018;2022-09-09T03:02:52;9.67;;;5.93;;
23802;SDS011;12082;51.786;6.018;2022-09-09T03:05:19;9.07;;;5.97;;
23802;SDS011;12082;51.786;6.018;2022-09-09T03:07:45;12.97;;;6.23;;
23802;SDS011;12082;51.786;6.018;2022-09-09T03:10:11;8.70;;;5.93;;
23802;SDS011;12082;51.786;6.018;2022-09-09T03:12:36;9.30;;;6.00;;
23802;SDS011;12082;51.786;6.018;2022-09-09T03:15:02;10.03;;;6.10;;
23802;SDS011;12082;51.786;6.018;2022-09-09T03:17:28;11.67;;;6.70;;
23802;SDS011;12082;51.786;6.018;2022-09-09T03:19:53;10.73;;;6.53;;
23802;SDS011;12082;51.786;6.018;2022-09-09T03:22:20;10.77;;;6.27;;
23802;SDS011;12082;51.786;6.018;2022-09-09T03:24:46;9.13;;;5.27;;
23802;SDS011;12082;51.786;6.018;2022-09-09T03:27:12;13.07;;;5.67;;
23802;SDS011;12082;51.786;6.018;2022-09-09T03:29:39;12.50;;;5.47;;
23802;SDS011;12082;51.786;6.018;2022-09-09T03:32:05;13.83;;;5.90;;
23802;SDS011;12082;51.786;6.018;2022-09-09T03:34:31;11.50;;;6.33;;
23802;SDS011;12082;51.786;6.018;2022-09-09T03:36:56;14.97;;;6.53;;
23802;SDS011;12082;51.786;6.018;2022-09-09T03:39:22;12.60;;;6.87;;
23802;SDS011;12082;51.786;6.018;2022-09-09T03:41:48;13.50;;;6.73;;
23802;SDS011;12082;51.786;6.018;2022-09-09T03:44:13;11.87;;;6.93;;
23802;SDS011;12082;51.786;6.018;2022-09-09T03:46:39;17.70;;;6.30;;
23802;SDS011;12082;51.786;6.018;2022-09-09T03:49:05;15.57;;;7.13;;
23802;SDS011;12082;51.786;6.018;2022-09-09T03:51:30;16.03;;;6.57;;
23802;SDS011;12082;51.786;6.018;2022-09-09T03:53:56;12.17;;;6.43;;
23802;SDS011;12082;51.786;6.018;2022-09-09T03:56:23;12.73;;;6.37;;
23802;SDS011;12082;51.786;6.018;2022-09-09T03:58:49;12.60;;;6.70;;
23802;SDS011;12082;51.786;6.018;2022-09-09T04:01:14;13.13;;;6.67;;
23802;SDS011;12082;51.786;6.018;2022-09-09T04:03:42;16.67;;;6.77;;
23802;SDS011;12082;51.786;6.018;2022-09-09T04:06:09;17.03;;;6.33;;
23802;SDS011;12082;51.786;6.018;2022-09-09T04:08:37;14.33;;;7.63;;
23802;SDS011;12082;51.786;6.018;2022-09-09T04:11:03;14.57;;;7.37;;
23802;SDS011;12082;51.786;6.018;2022-09-09T04:13:31;16.67;;;7.93;;
23802;SDS011;12082;51.786;6.018;2022-09-09T04:15:59;17.83;;;7.40;;
23802;SDS011;12082;51.786;6.018;2022-09-09T04:18:26;11.47;;;7.57;;
23802;SDS011;12082;51.786;6.018;2022-09-09T04:20:53;15.13;;;6.60;;
23802;SDS011;12082;51.786;6.018;2022-09-09T04:23:20;13.40;;;7.40;;
23802;SDS011;12082;51.786;6.018;2022-09-09T04:25:53;11.13;;;6.73;;
23802;SDS011;12082;51.786;6.018;2022-09-09T04:28:20;8.90;;;6.33;;
23802;SDS011;12082;51.786;6.018;2022-09-09T04:30:48;15.13;;;6.57;;
23802;SDS011;12082;51.786;6.018;2022-09-09T04:33:14;13.30;;;6.80;;
23802;SDS011;12082;51.786;6.018;2022-09-09T04:35:44;17.73;;;7.50;;
23802;SDS011;12082;51.786;6.018;2022-09-09T04:38:11;15.70;;;6.80;;
23802;SDS011;12082;51.786;6.018;2022-09-09T04:40:37;12.07;;;6.83;;
23802;SDS011;12082;51.786;6.018;2022-09-09T04:43:08;13.37;;;6.67;;
23802;SDS011;12082;51.786;6.018;2022-09-09T04:45:33;17.50;;;6.60;;
23802;SDS011;12082;51.786;6.018;2022-09-09T04:47:59;16.13;;;7.57;;
23802;SDS011;12082;51.786;6.018;2022-09-09T04:50:25;17.10;;;7.20;;
23802;SDS011;12082;51.786;6.018;2022-09-09T04:52:51;18.97;;;7.17;;
23802;SDS011;12082;51.786;6.018;2022-09-09T04:55:17;15.83;;;7.17;;
23802;SDS011;12082;51.786;6.018;2022-09-09T04:57:42;14.73;;;6.40;;
23802;SDS011;12082;51.786;6.018;2022-09-09T05:00:08;13.70;;;6.63;;
23802;SDS011;12082;51.786;6.018;2022-09-09T05:02:38;21.07;;;6.90;;
23802;SDS011;12082;51.786;6.018;2022-09-09T05:05:05;14.13;;;6.53;;
23802;SDS011;12082;51.786;6.018;2022-09-09T05:07:30;12.97;;;6.27;;
23802;SDS011;12082;51.786;6.018;2022-09-09T05:09:56;14.10;;;6.77;;
23802;SDS011;12082;51.786;6.018;2022-09-09T05:12:22;12.73;;;7.77;;
23802;SDS011;12082;51.786;6.018;2022-09-09T05:14:50;15.20;;;6.03;;
23802;SDS011;12082;51.786;6.018;2022-09-09T05:17:16;11.20;;;6.23;;
23802;SDS011;12082;51.786;6.018;2022-09-09T05:19:41;12.27;;;5.67;;
23802;SDS011;12082;51.786;6.018;2022-09-09T05:22:08;12.97;;;5.90;;
23802;SDS011;12082;51.786;6.018;2022-09-09T05:24:33;12.17;;;6.80;;
23802;SDS011;12082;51.786;6.018;2022-09-09T05:26:59;9.80;;;5.20;;
23802;SDS011;12082;51.786;6.018;2022-09-09T05:29:27;9.27;;;5.60;;
23802;SDS011;12082;51.786;6.018;2022-09-09T05:31:52;15.23;;;5.73;;
23802;SDS011;12082;51.786;6.018;2022-09-09T05:34:18;14.97;;;5.20;;
23802;SDS011;12082;51.786;6.018;2022-09-09T05:36:44;14.73;;;6.07;;
23802;SDS011;12082;51.786;6.018;2022-09-09T05:39:10;10.63;;;4.67;;
23802;SDS011;12082;51.786;6.018;2022-09-09T05:41:36;12.37;;;5.30;;
23802;SDS011;12082;51.786;6.018;2022-09-09T05:44:02;9.43;;;4.67;;
23802;SDS011;12082;51.786;6.018;2022-09-09T05:46:28;16.43;;;5.00;;
23802;SDS011;12082;51.786;6.018;2022-09-09T05:48:54;8.20;;;4.17;;
23802;SDS011;12082;51.786;6.018;2022-09-09T05:51:21;9.67;;;4.10;;
23802;SDS011;12082;51.786;6.018;2022-09-09T05:53:49;9.63;;;3.87;;
23802;SDS011;12082;51.786;6.018;2022-09-09T05:56:21;6.00;;;3.80;;
23802;SDS011;12082;51.786;6.018;2022-09-09T05:58:49;10.07;;;4.20;;
23802;SDS011;12082;51.786;6.018;2022-09-09T06:01:16;10.53;;;4.17;;
23802;SDS011;12082;51.786;6.018;2022-09-09T06:03:43;15.53;;;4.27;;
23802;SDS011;12082;51.786;6.018;2022-09-09T06:06:11;7.80;;;4.03;;
23802;SDS011;12082;51.786;6.018;2022-09-09T06:08:39;9.90;;;3.90;;
23802;SDS011;12082;51.786;6.018;2022-09-09T06:11:19;7.60;;;3.83;;
23802;SDS011;12082;51.786;6.018;2022-09-09T06:14:04;7.57;;;3.40;;
23802;SDS011;12082;51.786;6.018;2022-09-09T06:16:31;14.00;;;4.00;;
23802;SDS011;12082;51.786;6.018;2022-09-09T06:19:02;8.57;;;3.63;;
23802;SDS011;12082;51.786;6.018;2022-09-09T06:21:32;7.03;;;3.30;;
23802;SDS011;12082;51.786;6.018;2022-09-09T06:24:01;11.10;;;4.00;;
23802;SDS011;12082;51.786;6.018;2022-09-09T06:26:27;9.87;;;3.10;;
23802;SDS011;12082;51.786;6.018;2022-09-09T06:28:55;10.50;;;3.13;;
23802;SDS011;12082;51.786;6.018;2022-09-09T06:31:23;13.47;;;3.60;;
23802;SDS011;12082;51.786;6.018;2022-09-09T06:33:51;9.90;;;2.90;;
23802;SDS011;12082;51.786;6.018;2022-09-09T06:36:19;7.87;;;3.23;;
23802;SDS011;12082;51.786;6.018;2022-09-09T06:38:46;12.03;;;3.10;;
23802;SDS011;12082;51.786;6.018;2022-09-09T06:41:13;9.63;;;3.33;;
23802;SDS011;12082;51.786;6.018;2022-09-09T06:43:40;10.00;;;3.60;;
23802;SDS011;12082;51.786;6.018;2022-09-09T06:46:07;7.93;;;2.87;;
23802;SDS011;12082;51.786;6.018;2022-09-09T06:48:35;8.40;;;2.67;;
23802;SDS011;12082;51.786;6.018;2022-09-09T06:51:06;9.20;;;3.30;;
23802;SDS011;12082;51.786;6.018;2022-09-09T06:53:34;7.80;;;2.97;;
23802;SDS011;12082;51.786;6.018;2022-09-09T06:58:36;9.07;;;3.33;;
23802;SDS011;12082;51.786;6.018;2022-09-09T07:01:13;16.20;;;2.73;;
23802;SDS011;12082;51.786;6.018;2022-09-09T07:03:40;6.53;;;2.90;;
23802;SDS011;12082;51.786;6.018;2022-09-09T07:06:08;9.80;;;2.83;;
23802;SDS011;12082;51.786;6.018;2022-09-09T07:08:39;7.60;;;3.03;;
23802;SDS011;12082;51.786;6.018;2022-09-09T07:11:05;7.70;;;2.33;;
23802;SDS011;12082;51.786;6.018;2022-09-09T07:13:32;6.77;;;2.30;;
23802;SDS011;12082;51.786;6.018;2022-09-09T07:16:05;6.40;;;2.40;;
23802;SDS011;12082;51.786;6.018;2022-09-09T07:18:32;6.93;;;2.70;;
23802;SDS011;12082;51.786;6.018;2022-09-09T07:20:58;13.10;;;2.03;;
23802;SDS011;12082;51.786;6.018;2022-09-09T07:23:24;11.77;;;2.57;;
23802;SDS011;12082;51.786;6.018;2022-09-09T07:25:50;8.33;;;2.77;;
23802;SDS011;12082;51.786;6.018;2022-09-09T07:28:16;12.40;;;2.37;;
23802;SDS011;12082;51.786;6.018;2022-09-09T07:30:42;5.53;;;1.77;;
23802;SDS011;12082;51.786;6.018;2022-09-09T07:33:08;8.20;;;2.50;;
23802;SDS011;12082;51.786;6.018;2022-09-09T07:35:37;11.27;;;2.40;;
23802;SDS011;12082;51.786;6.018;2022-09-09T07:38:03;9.13;;;2.30;;
23802;SDS011;12082;51.786;6.018;2022-09-09T07:40:31;6.00;;;2.13;;
23802;SDS011;12082;51.786;6.018;2022-09-09T07:42:57;7.43;;;2.00;;
23802;SDS011;12082;51.786;6.018;2022-09-09T07:45:24;6.50;;;2.63;;
23802;SDS011;12082;51.786;6.018;2022-09-09T07:47:49;10.37;;;2.07;;
23802;SDS011;12082;51.786;6.018;2022-09-09T07:50:15;6.67;;;1.47;;
23802;SDS011;12082;51.786;6.018;2022-09-09T07:52:41;5.43;;;2.00;;
23802;SDS011;12082;51.786;6.018;2022-09-09T07:55:06;9.33;;;2.00;;
23802;SDS011;12082;51.786;6.018;2022-09-09T07:57:32;9.57;;;1.93;;
23802;SDS011;12082;51.786;6.018;2022-09-09T07:59:57;6.77;;;1.93;;
23802;SDS011;12082;51.786;6.018;2022-09-09T08:02:23;7.00;;;1.80;;
23802;SDS011;12082;51.786;6.018;2022-09-09T08:04:50;10.77;;;1.70;;
23802;SDS011;12082;51.786;6.018;2022-09-09T08:07:16;2.93;;;1.63;;
23802;SDS011;12082;51.786;6.018;2022-09-09T08:09:42;13.77;;;2.40;;
23802;SDS011;12082;51.786;6.018;2022-09-09T08:12:08;6.40;;;2.00;;
23802;SDS011;12082;51.786;6.018;2022-09-09T08:14:35;7.57;;;2.20;;
23802;SDS011;12082;51.786;6.018;2022-09-09T08:17:01;9.07;;;2.07;;
23802;SDS011;12082;51.786;6.018;2022-09-09T08:19:27;9.00;;;2.00;;
23802;SDS011;12082;51.786;6.018;2022-09-09T08:21:54;8.50;;;2.53;;
23802;SDS011;12082;51.786;6.018;2022-09-09T08:24:20;12.17;;;2.97;;
23802;SDS011;12082;51.786;6.018;2022-09-09T08:26:46;5.73;;;2.23;;
23802;SDS011;12082;51.786;6.018;2022-09-09T08:29:16;8.03;;;3.03;;
23802;SDS011;12082;51.786;6.018;2022-09-09T08:31:46;6.50;;;2.20;;
23802;SDS011;12082;51.786;6.018;2022-09-09T08:34:14;9.97;;;2.63;;
23802;SDS011;12082;51.786;6.018;2022-09-09T08:36:41;7.60;;;2.30;;
23802;SDS011;12082;51.786;6.018;2022-09-09T08:39:08;8.03;;;2.67;;
23802;SDS011;12082;51.786;6.018;2022-09-09T08:52:38;7.40;;;1.90;;
23802;SDS011;12082;51.786;6.018;2022-09-09T08:57:49;6.03;;;2.23;;
23802;SDS011;12082;51.786;6.018;2022-09-09T09:00:17;6.73;;;1.90;;
23802;SDS011;12082;51.786;6.018;2022-09-09T09:02:48;7.17;;;2.00;;
23802;SDS011;12082;51.786;6.018;2022-09-09T09:05:32;6.40;;;1.90;;
23802;SDS011;12082;51.786;6.018;2022-09-09T09:08:37;15.83;;;2.10;;
23802;SDS011;12082;51.786;6.018;2022-09-09T09:11:10;7.23;;;2.07;;
23802;SDS011;12082;51.786;6.018;2022-09-09T09:16:33;5.10;;;1.57;;
23802;SDS011;12082;51.786;6.018;2022-09-09T09:19:04;4.83;;;1.60;;
23802;SDS011;12082;51.786;6.018;2022-09-09T09:24:09;7.50;;;1.47;;
23802;SDS011;12082;51.786;6.018;2022-09-09T09:26:40;5.63;;;1.67;;
23802;SDS011;12082;51.786;6.018;2022-09-09T09:29:10;6.13;;;1.80;;
23802;SDS011;12082;51.786;6.018;2022-09-09T09:31:37;3.60;;;1.50;;
23802;SDS011;12082;51.786;6.018;2022-09-09T09:34:03;8.20;;;2.40;;
23802;SDS011;12082;51.786;6.018;2022-09-09T09:36:42;4.07;;;1.80;;
23802;SDS011;12082;51.786;6.018;2022-09-09T09:39:22;9.87;;;1.77;;
23802;SDS011;12082;51.786;6.018;2022-09-09T09:42:14;4.27;;;1.50;;
23802;SDS011;12082;51.786;6.018;2022-09-09T09:44:42;4.83;;;1.80;;
23802;SDS011;12082;51.786;6.018;2022-09-09T09:47:18;6.33;;;1.63;;
23802;SDS011;12082;51.786;6.018;2022-09-09T09:52:22;5.43;;;1.30;;
23802;SDS011;12082;51.786;6.018;2022-09-09T09:54:50;6.37;;;1.27;;
23802;SDS011;12082;51.786;6.018;2022-09-09T09:57:17;5.90;;;1.60;;
23802;SDS011;12082;51.786;6.018;2022-09-09T09:59:48;4.97;;;1.20;;
23802;SDS011;12082;51.786;6.018;2022-09-09T10:02:15;6.47;;;1.80;;
23802;SDS011;12082;51.786;6.018;2022-09-09T10:04:42;5.20;;;1.87;;
23802;SDS011;12082;51.786;6.018;2022-09-09T10:07:21;5.43;;;1.40;;
23802;SDS011;12082;51.786;6.018;2022-09-09T10:09:52;3.90;;;1.40;;
23802;SDS011;12082;51.786;6.018;2022-09-09T10:15:14;6.50;;;1.80;;
23802;SDS011;12082;51.786;6.018;2022-09-09T10:34:17;6.77;;;1.53;;
23802;SDS011;12082;51.786;6.018;2022-09-09T10:37:00;6.77;;;1.97;;
23802;SDS011;12082;51.786;6.018;2022-09-09T10:39:37;6.13;;;1.43;;
23802;SDS011;12082;51.786;6.018;2022-09-09T10:42:15;6.37;;;1.90;;
23802;SDS011;12082;51.786;6.018;2022-09-09T10:47:24;8.47;;;2.03;;
23802;SDS011;12082;51.786;6.018;2022-09-09T10:55:18;4.90;;;1.53;;
23802;SDS011;12082;51.786;6.018;2022-09-09T10:57:51;5.90;;;1.30;;
23802;SDS011;12082;51.786;6.018;2022-09-09T11:00:36;4.87;;;1.60;;
23802;SDS011;12082;51.786;6.018;2022-09-09T11:03:12;7.17;;;2.00;;
23802;SDS011;12082;51.786;6.018;2022-09-09T11:06:19;3.17;;;1.83;;
23802;SDS011;12082;51.786;6.018;2022-09-09T11:08:59;7.07;;;1.80;;
23802;SDS011;12082;51.786;6.018;2022-09-09T11:11:29;4.43;;;1.40;;
23802;SDS011;12082;51.786;6.018;2022-09-09T11:14:04;8.03;;;1.40;;
23802;SDS011;12082;51.786;6.018;2022-09-09T11:16:41;4.17;;;1.30;;
23802;SDS011;12082;51.786;6.018;2022-09-09T11:19:39;4.70;;;1.37;;
23802;SDS011;12082;51.786;6.018;2022-09-09T11:24:39;6.00;;;1.37;;
23802;SDS011;12082;51.786;6.018;2022-09-09T11:27:10;7.80;;;2.17;;
23802;SDS011;12082;51.786;6.018;2022-09-09T11:38:09;3.63;;;1.60;;
23802;SDS011;12082;51.786;6.018;2022-09-09T11:40:38;7.53;;;1.80;;
23802;SDS011;12082;51.786;6.018;2022-09-09T11:45:34;5.03;;;1.90;;
23802;SDS011;12082;51.786;6.018;2022-09-09T11:48:02;6.13;;;2.30;;
23802;SDS011;12082;51.786;6.018;2022-09-09T11:50:34;5.20;;;2.07;;
23802;SDS011;12082;51.786;6.018;2022-09-09T11:55:47;6.77;;;2.23;;
23802;SDS011;12082;51.786;6.018;2022-09-09T11:58:25;6.10;;;2.00;;
23802;SDS011;12082;51.786;6.018;2022-09-09T12:00:51;6.03;;;2.00;;
23802;SDS011;12082;51.786;6.018;2022-09-09T12:06:11;6.73;;;2.40;;
23802;SDS011;12082;51.786;6.018;2022-09-09T12:08:46;9.83;;;4.07;;
23802;SDS011;12082;51.786;6.018;2022-09-09T12:11:25;6.10;;;2.90;;
23802;SDS011;12082;51.786;6.018;2022-09-09T12:13:53;7.17;;;2.33;;
23802;SDS011;12082;51.786;6.018;2022-09-09T12:16:28;6.83;;;2.43;;
23802;SDS011;12082;51.786;6.018;2022-09-09T12:19:02;9.17;;;3.03;;
23802;SDS011;12082;51.786;6.018;2022-09-09T12:21:50;6.73;;;2.73;;
23802;SDS011;12082;51.786;6.018;2022-09-09T12:24:43;10.30;;;3.73;;
23802;SDS011;12082;51.786;6.018;2022-09-09T12:27:26;4.17;;;2.40;;
23802;SDS011;12082;51.786;6.018;2022-09-09T12:30:08;6.57;;;2.67;;
23802;SDS011;12082;51.786;6.018;2022-09-09T12:32:36;5.67;;;2.57;;
23802;SDS011;12082;51.786;6.018;2022-09-09T12:35:04;6.27;;;2.53;;
23802;SDS011;12082;51.786;6.018;2022-09-09T12:37:35;9.17;;;2.90;;
23802;SDS011;12082;51.786;6.018;2022-09-09T12:40:14;4.57;;;2.57;;
23802;SDS011;12082;51.786;6.018;2022-09-09T12:43:17;6.60;;;2.77;;
23802;SDS011;12082;51.786;6.018;2022-09-09T12:45:47;6.67;;;2.63;;
23802;SDS011;12082;51.786;6.018;2022-09-09T12:48:16;7.33;;;2.97;;
23802;SDS011;12082;51.786;6.018;2022-09-09T12:50:45;7.47;;;2.80;;
23802;SDS011;12082;51.786;6.018;2022-09-09T12:53:22;7.97;;;3.10;;
23802;SDS011;12082;51.786;6.018;2022-09-09T12:56:03;6.13;;;2.37;;
23802;SDS011;12082;51.786;6.018;2022-09-09T12:58:32;5.87;;;2.90;;
23802;SDS011;12082;51.786;6.018;2022-09-09T13:00:58;5.87;;;3.00;;
23802;SDS011;12082;51.786;6.018;2022-09-09T13:03:25;9.17;;;2.70;;
23802;SDS011;12082;51.786;6.018;2022-09-09T13:05:52;9.37;;;3.30;;
23802;SDS011;12082;51.786;6.018;2022-09-09T13:08:18;9.10;;;3.43;;
23802;SDS011;12082;51.786;6.018;2022-09-09T13:13:22;7.57;;;3.20;;
23802;SDS011;12082;51.786;6.018;2022-09-09T13:15:54;10.07;;;3.37;;
23802;SDS011;12082;51.786;6.018;2022-09-09T13:18:23;6.67;;;3.33;;
23802;SDS011;12082;51.786;6.018;2022-09-09T13:20:54;6.27;;;3.00;;
23802;SDS011;12082;51.786;6.018;2022-09-09T13:23:22;8.07;;;2.90;;
23802;SDS011;12082;51.786;6.018;2022-09-09T13:25:59;6.00;;;3.50;;
23802;SDS011;12082;51.786;6.018;2022-09-09T13:28:27;8.90;;;3.07;;
23802;SDS011;12082;51.786;6.018;2022-09-09T13:30:58;5.77;;;3.03;;
23802;SDS011;12082;51.786;6.018;2022-09-09T13:33:37;5.23;;;2.97;;
23802;SDS011;12082;51.786;6.018;2022-09-09T13:38:36;6.03;;;3.00;;
23802;SDS011;12082;51.786;6.018;2022-09-09T13:41:04;5.97;;;2.80;;
23802;SDS011;12082;51.786;6.018;2022-09-09T13:43:51;7.33;;;2.70;;
23802;SDS011;12082;51.786;6.018;2022-09-09T13:49:02;7.47;;;2.77;;
23802;SDS011;12082;51.786;6.018;2022-09-09T13:51:41;7.27;;;2.87;;
23802;SDS011;12082;51.786;6.018;2022-09-09T13:54:15;5.63;;;3.10;;
23802;SDS011;12082;51.786;6.018;2022-09-09T13:56:43;7.90;;;3.33;;
23802;SDS011;12082;51.786;6.018;2022-09-09T13:59:10;5.30;;;3.20;;
23802;SDS011;12082;51.786;6.018;2022-09-09T14:01:38;7.50;;;3.60;;
23802;SDS011;12082;51.786;6.018;2022-09-09T14:04:04;7.93;;;3.03;;
23802;SDS011;12082;51.786;6.018;2022-09-09T14:06:31;6.63;;;3.10;;
23802;SDS011;12082;51.786;6.018;2022-09-09T14:08:57;8.53;;;3.27;;
23802;SDS011;12082;51.786;6.018;2022-09-09T14:11:23;7.63;;;3.47;;
23802;SDS011;12082;51.786;6.018;2022-09-09T14:13:49;8.07;;;3.03;;
23802;SDS011;12082;51.786;6.018;2022-09-09T14:16:18;9.03;;;3.73;;
23802;SDS011;12082;51.786;6.018;2022-09-09T14:18:45;8.30;;;3.83;;
23802;SDS011;12082;51.786;6.018;2022-09-09T14:21:11;7.43;;;3.70;;
23802;SDS011;12082;51.786;6.018;2022-09-09T14:23:37;9.40;;;4.10;;
23802;SDS011;12082;51.786;6.018;2022-09-09T14:26:04;10.13;;;3.77;;
23802;SDS011;12082;51.786;6.018;2022-09-09T14:28:30;12.23;;;4.30;;
23802;SDS011;12082;51.786;6.018;2022-09-09T14:30:59;6.90;;;3.70;;
23802;SDS011;12082;51.786;6.018;2022-09-09T14:33:25;7.70;;;4.33;;
23802;SDS011;12082;51.786;6.018;2022-09-09T14:35:58;7.37;;;4.60;;
23802;SDS011;12082;51.786;6.018;2022-09-09T14:38:24;8.20;;;4.17;;
23802;SDS011;12082;51.786;6.018;2022-09-09T14:40:53;9.93;;;4.47;;
23802;SDS011;12082;51.786;6.018;2022-09-09T14:43:19;10.47;;;4.40;;
23802;SDS011;12082;51.786;6.018;2022-09-09T14:45:45;9.47;;;3.70;;
23802;SDS011;12082;51.786;6.018;2022-09-09T14:48:13;6.83;;;4.47;;
23802;SDS011;12082;51.786;6.018;2022-09-09T14:50:39;4.63;;;2.50;;
23802;SDS011;12082;51.786;6.018;2022-09-09T14:53:06;4.30;;;2.53;;
23802;SDS011;12082;51.786;6.018;2022-09-09T14:55:34;7.53;;;3.10;;
23802;SDS011;12082;51.786;6.018;2022-09-09T14:58:00;3.93;;;2.80;;
23802;SDS011;12082;51.786;6.018;2022-09-09T15:00:25;8.73;;;2.57;;
23802;SDS011;12082;51.786;6.018;2022-09-09T15:02:52;6.50;;;2.40;;
23802;SDS011;12082;51.786;6.018;2022-09-09T15:05:18;8.87;;;2.40;;
23802;SDS011;12082;51.786;6.018;2022-09-09T15:07:44;5.87;;;2.83;;
23802;SDS011;12082;51.786;6.018;2022-09-09T15:10:10;7.17;;;2.53;;
23802;SDS011;12082;51.786;6.018;2022-09-09T15:12:36;4.97;;;2.53;;
23802;SDS011;12082;51.786;6.018;2022-09-09T15:15:03;3.83;;;2.40;;
23802;SDS011;12082;51.786;6.018;2022-09-09T15:17:29;3.73;;;2.10;;
23802;SDS011;12082;51.786;6.018;2022-09-09T15:19:56;5.63;;;2.13;;
23802;SDS011;12082;51.786;6.018;2022-09-09T15:22:22;5.03;;;1.97;;
23802;SDS011;12082;51.786;6.018;2022-09-09T15:24:49;5.27;;;1.90;;
23802;SDS011;12082;51.786;6.018;2022-09-09T15:27:15;6.63;;;2.43;;
23802;SDS011;12082;51.786;6.018;2022-09-09T15:29:40;3.73;;;1.93;;
23802;SDS011;12082;51.786;6.018;2022-09-09T15:32:06;9.50;;;3.63;;
23802;SDS011;12082;51.786;6.018;2022-09-09T15:34:32;3.27;;;1.90;;
23802;SDS011;12082;51.786;6.018;2022-09-09T15:36:58;3.07;;;1.70;;
23802;SDS011;12082;51.786;6.018;2022-09-09T15:39:24;6.30;;;2.20;;
23802;SDS011;12082;51.786;6.018;2022-09-09T15:41:50;4.90;;;2.10;;
23802;SDS011;12082;51.786;6.018;2022-09-09T15:44:16;3.33;;;2.00;;
23802;SDS011;12082;51.786;6.018;2022-09-09T15:46:45;4.67;;;1.70;;
23802;SDS011;12082;51.786;6.018;2022-09-09T15:51:39;7.07;;;2.00;;
23802;SDS011;12082;51.786;6.018;2022-09-09T15:54:07;2.97;;;1.97;;
23802;SDS011;12082;51.786;6.018;2022-09-09T15:56:34;5.70;;;2.30;;
23802;SDS011;12082;51.786;6.018;2022-09-09T15:59:00;5.70;;;1.97;;
23802;SDS011;12082;51.786;6.018;2022-09-09T16:01:30;7.97;;;2.07;;
23802;SDS011;12082;51.786;6.018;2022-09-09T16:03:57;5.13;;;2.10;;
23802;SDS011;12082;51.786;6.018;2022-09-09T16:06:24;5.83;;;1.97;;
23802;SDS011;12082;51.786;6.018;2022-09-09T16:08:53;4.73;;;2.03;;
23802;SDS011;12082;51.786;6.018;2022-09-09T16:11:20;5.30;;;2.57;;
23802;SDS011;12082;51.786;6.018;2022-09-09T16:13:49;7.00;;;2.13;;
23802;SDS011;12082;51.786;6.018;2022-09-09T16:16:18;2.93;;;1.93;;
23802;SDS011;12082;51.786;6.018;2022-09-09T16:18:47;2.67;;;1.90;;
23802;SDS011;12082;51.786;6.018;2022-09-09T16:21:17;4.50;;;2.13;;
23802;SDS011;12082;51.786;6.018;2022-09-09T16:23:49;7.20;;;2.60;;
23802;SDS011;12082;51.786;6.018;2022-09-09T16:26:15;4.80;;;3.03;;
23802;SDS011;12082;51.786;6.018;2022-09-09T16:28:41;7.23;;;3.03;;
23802;SDS011;12082;51.786;6.018;2022-09-09T16:31:08;7.23;;;3.50;;
23802;SDS011;12082;51.786;6.018;2022-09-09T16:33:36;6.20;;;2.40;;
23802;SDS011;12082;51.786;6.018;2022-09-09T16:36:06;4.90;;;2.00;;
23802;SDS011;12082;51.786;6.018;2022-09-09T16:38:32;3.03;;;2.00;;
23802;SDS011;12082;51.786;6.018;2022-09-09T16:40:59;3.07;;;2.60;;
23802;SDS011;12082;51.786;6.018;2022-09-09T16:43:25;3.23;;;2.40;;
23802;SDS011;12082;51.786;6.018;2022-09-09T16:45:50;7.10;;;3.03;;
23802;SDS011;12082;51.786;6.018;2022-09-09T16:48:16;3.30;;;2.73;;
23802;SDS011;12082;51.786;6.018;2022-09-09T16:50:42;3.13;;;2.70;;
23802;SDS011;12082;51.786;6.018;2022-09-09T16:53:07;4.87;;;2.43;;
23802;SDS011;12082;51.786;6.018;2022-09-09T16:55:43;4.07;;;2.77;;
23802;SDS011;12082;51.786;6.018;2022-09-09T16:58:12;7.37;;;2.33;;
23802;SDS011;12082;51.786;6.018;2022-09-09T17:00:37;4.83;;;2.53;;
23802;SDS011;12082;51.786;6.018;2022-09-09T17:03:03;3.57;;;2.37;;
23802;SDS011;12082;51.786;6.018;2022-09-09T17:05:29;4.67;;;2.97;;
23802;SDS011;12082;51.786;6.018;2022-09-09T17:07:54;4.43;;;2.70;;
23802;SDS011;12082;51.786;6.018;2022-09-09T17:10:22;5.03;;;3.27;;
23802;SDS011;12082;51.786;6.018;2022-09-09T17:12:49;5.97;;;2.77;;
23802;SDS011;12082;51.786;6.018;2022-09-09T17:15:14;4.40;;;3.30;;